Airfield :
LOGIN :

Register | Disclaimer

   EN    FR    IT 

 










Legend :    VFR   Marginal VFR   IFR   Intensive IFR   Very Intensive IFR
Visi :
Ceiling :
>= 8 km
>= 3000ft
5 to 8 km
1000 to 3000 ft
1500m to 5 km
500 to 1000 ft
800 to 1500m
200 to 500 ft
< 800m
< 200 ft
Symbols :   Thunderstorms  Fog  Heavy snow  Heavy precipitations  Wind > 20 kt
SIGMETs :     Misc.  Thunderstorms  Icing  Turbulence  Mountain Waves  Volcanic Ashes






- Airport Elevation : 297 ft
- IATA code : UIP


LFRQ - Quimper Pluguffan

CURRENT METAR :
  • 240430Z AUTO 00000KT CAVOK 11/09 Q1006

EXPIRED METARs :
  • 240400Z AUTO VRB01KT CAVOK 11/09 Q1006
  • 240330Z AUTO 31006KT 9999 FEW032 OVC140 11/09 Q1006
  • 240300Z AUTO 31009KT 9999 BKN024 BKN031 OVC098 11/10 Q1006
  • 240230Z AUTO 30009KT 7000 BKN007 BKN014 OVC024 12/11 Q1006
  • 240200Z AUTO 31005KT 290V350 6000 BKN006 OVC022 12/11 Q1006

TAF TAF LFRQ
Valid from the 23 at 18:00 until the 24 at 18:00 UTC


231700Z 2318/2418 35008KT 9999 OVC006
BECMG 2403/2406 30010KT BKN016
PROB30
TEMPO 2415/2418 SHRA



MET'MAP, your aeronautical weather chart ! - Copyright ORBIFLY December 2007 - Disclaimer

ORBIFLY MET'MAP TEAM :

Programming & Development : Alexandra Zaïnal
Concept & Development : Baudouin d'Aumeries
Co-Development & Prog : Marc-Olivier Méhu
Technical & hardware support : Manuel Goepfert

Contact : metmap@orbifly.com




SOURCES & CREDITS :

   NOAA